createdAt,value
2023-02-26T00:01:17.726Z,5.85
2023-02-26T00:03:44.501Z,4.75
2023-02-26T00:06:11.221Z,5.57
2023-02-26T00:08:38.093Z,6.43
2023-02-26T00:11:08.090Z,2.80
2023-02-26T00:13:36.734Z,4.72
2023-02-26T00:16:04.857Z,4.97
2023-02-26T00:18:31.847Z,3.05
2023-02-26T00:20:58.892Z,4.75
2023-02-26T00:23:25.756Z,4.18
2023-02-26T00:25:52.442Z,3.65
2023-02-26T00:28:19.730Z,5.63
2023-02-26T00:30:46.718Z,3.53
2023-02-26T00:33:13.757Z,5.18
2023-02-26T00:35:40.699Z,6.93
2023-02-26T00:38:09.924Z,4.93
2023-02-26T00:40:46.774Z,5.35
2023-02-26T00:43:24.875Z,5.55
2023-02-26T00:46:04.150Z,7.22
2023-02-26T00:48:53.477Z,8.18
2023-02-26T00:51:38.894Z,4.32
2023-02-26T00:54:12.822Z,7.47
2023-02-26T00:56:39.480Z,8.95
2023-02-26T00:59:06.210Z,7.53
2023-02-26T01:01:32.922Z,4.68
2023-02-26T01:04:00.200Z,4.70
2023-02-26T01:06:33.042Z,5.00
2023-02-26T01:09:10.449Z,4.78
2023-02-26T01:11:37.612Z,6.22
2023-02-26T01:14:05.465Z,6.30
2023-02-26T01:16:35.832Z,4.53
2023-02-26T01:19:09.525Z,6.05
2023-02-26T01:21:37.572Z,6.20
2023-02-26T01:24:06.522Z,7.35
2023-02-26T01:26:33.471Z,5.75
2023-02-26T01:29:00.477Z,7.28
2023-02-26T01:31:55.339Z,5.80
2023-02-26T01:34:34.790Z,4.53
2023-02-26T01:37:22.492Z,4.60
2023-02-26T01:40:00.354Z,4.15
2023-02-26T01:42:27.872Z,3.85
2023-02-26T01:45:03.663Z,8.90
2023-02-26T01:47:50.331Z,4.97
2023-02-26T01:50:19.925Z,7.97
2023-02-26T01:52:49.700Z,4.45
2023-02-26T01:55:27.220Z,4.85
2023-02-26T01:57:56.320Z,6.53
2023-02-26T02:00:23.196Z,8.43
2023-02-26T02:02:50.536Z,4.18
2023-02-26T02:05:22.107Z,5.65
2023-02-26T02:07:48.835Z,6.25
2023-02-26T02:10:15.637Z,4.43
2023-02-26T02:12:55.774Z,3.80
2023-02-26T02:15:25.542Z,4.75
2023-02-26T02:17:56.316Z,4.75
2023-02-26T02:20:47.706Z,6.20
2023-02-26T02:23:22.952Z,6.32
2023-02-26T02:26:07.446Z,7.75
2023-02-26T02:28:40.809Z,5.93
2023-02-26T02:31:09.299Z,5.20
2023-02-26T02:33:46.765Z,5.82
2023-02-26T02:36:20.858Z,6.80
2023-02-26T02:38:50.531Z,7.20
2023-02-26T02:41:30.673Z,5.10
2023-02-26T02:43:59.154Z,4.72
2023-02-26T02:46:28.433Z,6.72
2023-02-26T02:49:09.025Z,8.02
2023-02-26T02:51:51.394Z,4.50
2023-02-26T02:54:43.325Z,4.47
2023-02-26T02:57:16.347Z,6.80
2023-02-26T03:02:23.317Z,7.28
2023-02-26T03:04:50.115Z,5.55
2023-02-26T03:07:16.784Z,5.93
2023-02-26T03:09:43.532Z,5.68
2023-02-26T03:12:10.299Z,4.13
2023-02-26T03:14:37.064Z,8.05
2023-02-26T03:17:14.386Z,8.75
2023-02-26T03:19:50.719Z,3.65
2023-02-26T03:22:32.536Z,6.60
2023-02-26T03:25:08.653Z,5.70
2023-02-26T03:27:46.637Z,3.22
2023-02-26T03:30:24.882Z,4.65
2023-02-26T03:33:06.203Z,4.95
2023-02-26T03:35:45.383Z,4.65
2023-02-26T03:38:18.128Z,8.70
2023-02-26T03:40:53.928Z,5.13
2023-02-26T03:43:22.614Z,4.40
2023-02-26T03:45:50.796Z,6.18
2023-02-26T03:48:19.816Z,4.97
2023-02-26T03:50:47.293Z,3.83
2023-02-26T03:53:16.324Z,3.13
2023-02-26T03:56:20.728Z,3.90
2023-02-26T03:58:47.490Z,6.05
2023-02-26T04:01:23.066Z,4.55
2023-02-26T04:04:11.305Z,5.22
2023-02-26T04:06:38.105Z,6.15
2023-02-26T04:09:04.919Z,4.15
2023-02-26T04:11:31.700Z,4.68
2023-02-26T04:13:58.413Z,4.47
2023-02-26T04:16:25.499Z,7.28
2023-02-26T04:18:52.310Z,5.25
2023-02-26T04:21:20.733Z,5.13
2023-02-26T04:23:47.565Z,6.18
2023-02-26T04:26:14.280Z,4.68
2023-02-26T04:28:41.587Z,6.22
2023-02-26T04:31:09.973Z,8.82
2023-02-26T04:33:37.181Z,5.68
2023-02-26T04:36:04.997Z,5.18
2023-02-26T04:38:31.781Z,5.55
2023-02-26T04:40:58.462Z,8.80
2023-02-26T04:43:25.261Z,4.07
2023-02-26T04:45:52.025Z,6.93
2023-02-26T04:48:18.898Z,4.50
2023-02-26T04:50:47.082Z,7.38
2023-02-26T04:53:14.286Z,4.40
2023-02-26T04:55:43.715Z,5.10
2023-02-26T04:58:10.469Z,4.72
2023-02-26T05:00:37.352Z,5.05
2023-02-26T05:03:04.592Z,7.75
2023-02-26T05:05:31.308Z,5.38
2023-02-26T05:07:58.347Z,2.90
2023-02-26T05:10:25.537Z,4.40
2023-02-26T05:12:52.296Z,4.47
2023-02-26T05:15:19.247Z,4.30
2023-02-26T05:17:46.818Z,5.57
2023-02-26T05:20:13.682Z,7.78
2023-02-26T05:22:40.400Z,9.52
2023-02-26T05:25:08.120Z,5.45
2023-02-26T05:27:34.894Z,7.45
2023-02-26T05:30:01.778Z,8.07
2023-02-26T05:32:29.207Z,6.35
2023-02-26T05:34:56.020Z,4.72
2023-02-26T05:37:22.717Z,7.70
2023-02-26T05:39:49.440Z,5.35
2023-02-26T05:42:16.199Z,4.50
2023-02-26T05:44:42.936Z,5.38
2023-02-26T05:47:09.625Z,6.70
2023-02-26T05:49:36.358Z,5.60
2023-02-26T05:52:03.191Z,6.45
2023-02-26T05:54:29.930Z,8.85
2023-02-26T05:56:56.670Z,11.43
2023-02-26T05:59:23.588Z,7.88
2023-02-26T06:01:50.289Z,8.13
2023-02-26T06:04:17.096Z,9.68
2023-02-26T06:06:43.763Z,8.55
2023-02-26T06:09:10.482Z,7.25
2023-02-26T06:11:38.566Z,10.02
2023-02-26T06:14:05.559Z,6.40
2023-02-26T06:16:32.923Z,7.15
2023-02-26T06:18:59.800Z,6.30
2023-02-26T06:21:26.564Z,6.95
2023-02-26T06:23:53.299Z,3.78
2023-02-26T06:26:22.068Z,5.60
2023-02-26T06:28:50.138Z,4.53
2023-02-26T06:31:16.944Z,8.95
2023-02-26T06:33:43.912Z,6.00
2023-02-26T06:36:13.633Z,7.45
2023-02-26T06:38:40.457Z,6.03
2023-02-26T06:41:07.182Z,8.18
2023-02-26T06:43:33.915Z,5.15
2023-02-26T06:46:00.657Z,7.88
2023-02-26T06:48:27.528Z,6.28
2023-02-26T06:50:54.269Z,8.68
2023-02-26T06:53:21.101Z,9.82
2023-02-26T06:55:50.650Z,8.80
2023-02-26T06:58:17.357Z,8.88
2023-02-26T07:00:44.127Z,9.70
2023-02-26T07:03:12.700Z,20.70
2023-02-26T07:05:39.367Z,8.35
2023-02-26T07:08:06.118Z,5.78
2023-02-26T07:10:33.969Z,6.75
2023-02-26T07:13:00.783Z,5.70
2023-02-26T07:15:27.512Z,7.97
2023-02-26T07:17:54.228Z,6.88
2023-02-26T07:20:21.016Z,7.00
2023-02-26T07:22:47.790Z,8.55
2023-02-26T07:25:14.872Z,8.13
2023-02-26T07:27:43.706Z,7.35
2023-02-26T07:30:11.186Z,9.35
2023-02-26T07:32:38.011Z,6.05
2023-02-26T07:35:05.157Z,7.72
2023-02-26T07:37:31.853Z,6.38
2023-02-26T07:39:58.676Z,7.07
2023-02-26T07:42:25.598Z,5.00
2023-02-26T07:44:52.301Z,7.60
2023-02-26T07:47:18.941Z,6.68
2023-02-26T07:49:45.657Z,8.00
2023-02-26T07:52:12.346Z,4.20
2023-02-26T07:54:39.163Z,6.07
2023-02-26T07:57:05.946Z,4.55
2023-02-26T07:59:32.665Z,4.95
2023-02-26T08:01:59.399Z,5.03
2023-02-26T08:04:26.276Z,8.35
2023-02-26T08:06:54.778Z,4.38
2023-02-26T08:09:22.283Z,4.43
2023-02-26T08:11:49.311Z,7.75
2023-02-26T08:14:16.067Z,8.98
2023-02-26T08:16:42.805Z,10.48
2023-02-26T08:19:09.726Z,3.20
2023-02-26T08:21:36.688Z,3.38
2023-02-26T08:24:03.525Z,7.07
2023-02-26T08:26:30.390Z,3.45
2023-02-26T08:28:57.232Z,4.00
2023-02-26T08:31:24.191Z,5.57
2023-02-26T08:33:52.040Z,4.57
2023-02-26T08:36:18.737Z,6.38
2023-02-26T08:38:45.420Z,5.03
2023-02-26T08:41:13.228Z,6.03
2023-02-26T08:43:39.982Z,5.40
2023-02-26T08:46:06.708Z,3.55
2023-02-26T08:48:37.796Z,4.45
2023-02-26T08:51:06.801Z,2.35
2023-02-26T08:53:33.568Z,5.68
2023-02-26T08:56:00.368Z,6.38
2023-02-26T08:58:27.160Z,3.25
2023-02-26T09:00:53.872Z,3.63
2023-02-26T09:03:20.889Z,5.05
2023-02-26T09:05:47.603Z,2.67
2023-02-26T09:08:16.274Z,2.50
2023-02-26T09:10:43.172Z,2.72
2023-02-26T09:13:10.060Z,3.70
2023-02-26T09:15:36.737Z,1.70
2023-02-26T09:18:03.533Z,4.22
2023-02-26T09:20:30.289Z,2.95
2023-02-26T09:22:56.918Z,3.03
2023-02-26T09:25:24.097Z,1.85
2023-02-26T09:27:50.928Z,6.05
2023-02-26T09:30:19.617Z,2.42
2023-02-26T09:32:46.323Z,1.67
2023-02-26T09:35:14.169Z,4.32
2023-02-26T09:37:40.919Z,5.97
2023-02-26T09:40:09.274Z,5.22
2023-02-26T09:43:02.127Z,3.13
2023-02-26T09:45:38.147Z,1.67
2023-02-26T09:48:06.783Z,4.20
2023-02-26T09:50:47.101Z,5.30
2023-02-26T09:53:33.569Z,3.63
2023-02-26T09:56:06.351Z,3.30
2023-02-26T09:58:36.651Z,2.05
2023-02-26T10:01:11.023Z,2.63
2023-02-26T10:03:53.175Z,4.97
2023-02-26T10:06:26.128Z,2.47
2023-02-26T10:11:38.482Z,2.75
2023-02-26T10:14:09.334Z,3.88
2023-02-26T10:16:39.375Z,2.85
2023-02-26T10:19:17.191Z,4.45
2023-02-26T10:22:16.605Z,3.10
2023-02-26T10:24:47.220Z,4.88
2023-02-26T10:27:21.111Z,6.63
2023-02-26T10:30:00.045Z,2.20
2023-02-26T10:33:02.200Z,2.28
2023-02-26T10:35:29.889Z,1.83
2023-02-26T10:38:04.694Z,2.90
2023-02-26T10:41:00.010Z,2.42
2023-02-26T10:43:40.447Z,1.88
2023-02-26T10:46:19.700Z,2.45
2023-02-26T10:48:53.528Z,3.58
2023-02-26T10:51:23.557Z,1.98
2023-02-26T10:54:24.153Z,3.28
2023-02-26T10:56:50.868Z,1.48
2023-02-26T10:59:17.572Z,1.40
2023-02-26T11:01:44.966Z,1.52
2023-02-26T11:04:15.213Z,1.55
2023-02-26T11:06:48.562Z,1.95
2023-02-26T11:12:11.294Z,1.60
2023-02-26T11:14:38.015Z,1.67
2023-02-26T11:17:19.938Z,1.60
2023-02-26T11:19:59.407Z,2.45
2023-02-26T11:22:27.957Z,1.25
2023-02-26T11:24:54.701Z,3.22
2023-02-26T11:27:27.188Z,4.40
2023-02-26T11:29:57.273Z,2.08
2023-02-26T11:32:34.770Z,3.53
2023-02-26T11:35:01.533Z,1.65
2023-02-26T11:37:35.416Z,2.50
2023-02-26T11:40:14.246Z,2.40
2023-02-26T11:42:49.258Z,2.65
2023-02-26T11:45:17.864Z,1.10
2023-02-26T11:47:48.792Z,2.30
2023-02-26T11:50:19.302Z,2.25
2023-02-26T11:52:47.381Z,1.15
2023-02-26T11:55:23.179Z,1.55
2023-02-26T11:57:56.720Z,1.20
2023-02-26T12:00:37.943Z,1.65
2023-02-26T12:03:15.102Z,2.05
2023-02-26T12:05:41.967Z,2.08
2023-02-26T12:08:18.998Z,2.47
2023-02-26T12:11:15.099Z,1.42
2023-02-26T12:14:01.236Z,1.48
2023-02-26T12:16:33.868Z,1.20
2023-02-26T12:19:13.190Z,1.17
2023-02-26T12:21:42.970Z,1.27
2023-02-26T12:24:57.928Z,1.33
2023-02-26T12:27:51.291Z,4.78
2023-02-26T12:30:42.384Z,1.63
2023-02-26T12:33:29.337Z,1.30
2023-02-26T12:36:23.409Z,2.75
2023-02-26T12:38:53.445Z,1.48
2023-02-26T12:41:20.204Z,3.20
2023-02-26T12:43:54.955Z,5.35
2023-02-26T12:46:43.461Z,1.15
2023-02-26T12:49:25.305Z,1.13
2023-02-26T12:52:19.844Z,2.17
2023-02-26T12:55:18.919Z,2.20
2023-02-26T12:58:10.588Z,2.60
2023-02-26T13:00:46.456Z,1.35
2023-02-26T13:03:31.688Z,0.75
2023-02-26T13:06:12.419Z,1.45
2023-02-26T13:09:05.354Z,1.52
2023-02-26T13:11:45.841Z,1.00
2023-02-26T13:14:53.938Z,1.05
2023-02-26T13:17:49.461Z,1.33
2023-02-26T13:20:22.422Z,0.80
2023-02-26T13:22:52.242Z,1.23
2023-02-26T13:25:36.955Z,2.30
2023-02-26T13:28:27.628Z,1.88
2023-02-26T13:30:55.742Z,1.02
2023-02-26T13:33:30.408Z,0.80
2023-02-26T13:35:57.560Z,0.68
2023-02-26T13:38:55.222Z,0.70
2023-02-26T13:41:41.016Z,2.20
2023-02-26T13:44:57.405Z,1.65
2023-02-26T13:47:47.635Z,1.30
2023-02-26T13:50:42.305Z,2.08
2023-02-26T13:53:24.630Z,1.25
2023-02-26T13:55:53.106Z,1.75
2023-02-26T13:58:22.771Z,1.42
2023-02-26T14:01:07.799Z,1.60
2023-02-26T14:03:35.846Z,1.10
2023-02-26T14:06:23.387Z,1.80
2023-02-26T14:08:53.711Z,1.85
2023-02-26T14:11:32.731Z,1.25
2023-02-26T14:14:22.268Z,1.38
2023-02-26T14:16:56.354Z,0.82
2023-02-26T14:19:32.937Z,0.95
2023-02-26T14:22:23.708Z,2.58
2023-02-26T14:25:16.841Z,1.63
2023-02-26T14:27:44.818Z,1.60
2023-02-26T14:30:11.448Z,1.17
2023-02-26T14:32:56.661Z,1.15
2023-02-26T14:35:35.329Z,1.63
2023-02-26T14:38:24.401Z,2.55
2023-02-26T14:41:00.574Z,2.15
2023-02-26T14:43:51.687Z,1.48
2023-02-26T14:46:18.438Z,0.50
2023-02-26T14:48:45.227Z,1.95
2023-02-26T14:51:36.247Z,0.80
2023-02-26T14:54:34.896Z,0.68
2023-02-26T14:58:04.608Z,1.65
2023-02-26T15:00:41.786Z,2.03
2023-02-26T15:03:32.806Z,1.45
2023-02-26T15:06:20.664Z,1.52
2023-02-26T15:08:51.529Z,0.77
2023-02-26T15:11:21.310Z,0.98
2023-02-26T15:14:06.169Z,1.05
2023-02-26T15:17:21.020Z,1.25
2023-02-26T15:20:11.460Z,1.58
2023-02-26T15:22:59.296Z,0.93
2023-02-26T15:25:37.042Z,1.52
2023-02-26T15:28:06.749Z,1.55
2023-02-26T15:30:33.877Z,1.40
2023-02-26T15:33:04.202Z,1.20
2023-02-26T15:35:32.073Z,1.10
2023-02-26T15:38:01.479Z,1.00
2023-02-26T15:40:32.261Z,1.10
2023-02-26T15:42:59.244Z,2.40
2023-02-26T15:45:30.010Z,1.10
2023-02-26T15:47:59.442Z,1.08
2023-02-26T15:50:30.525Z,1.02
2023-02-26T15:53:00.307Z,1.40
2023-02-26T15:55:27.304Z,0.80
2023-02-26T15:57:54.047Z,1.10
2023-02-26T16:00:25.611Z,1.00
2023-02-26T16:02:59.274Z,2.25
2023-02-26T16:05:27.231Z,0.80
2023-02-26T16:07:54.012Z,1.88
2023-02-26T16:10:48.244Z,1.13
2023-02-26T16:13:16.477Z,0.98
2023-02-26T16:15:43.287Z,1.02
2023-02-26T16:18:24.062Z,1.45
2023-02-26T16:20:54.533Z,0.82
2023-02-26T16:23:24.129Z,1.15
2023-02-26T16:26:00.530Z,2.33
2023-02-26T16:28:37.959Z,1.08
2023-02-26T16:31:05.421Z,1.38
2023-02-26T16:33:34.465Z,1.20
2023-02-26T16:36:15.875Z,4.03
2023-02-26T16:38:51.384Z,2.15
2023-02-26T16:41:22.808Z,3.00
2023-02-26T16:43:56.987Z,2.40
2023-02-26T16:46:56.008Z,3.80
2023-02-26T16:49:29.518Z,2.05
2023-02-26T16:51:56.730Z,1.50
2023-02-26T16:54:27.893Z,2.15
2023-02-26T16:57:00.848Z,1.63
2023-02-26T16:59:31.969Z,2.40
2023-02-26T17:02:16.450Z,3.90
2023-02-26T17:04:43.145Z,1.55
2023-02-26T17:07:37.190Z,2.00
2023-02-26T17:10:13.876Z,1.80
2023-02-26T17:12:40.491Z,1.02
2023-02-26T17:15:20.880Z,1.08
2023-02-26T17:17:50.826Z,2.42
2023-02-26T17:20:17.694Z,1.98
2023-02-26T17:22:44.839Z,1.55
2023-02-26T17:25:15.718Z,1.73
2023-02-26T17:27:42.608Z,1.67
2023-02-26T17:30:11.886Z,1.30
2023-02-26T17:32:38.770Z,3.50
2023-02-26T17:35:06.408Z,1.52
2023-02-26T17:37:33.723Z,2.58
2023-02-26T17:40:00.560Z,1.67
2023-02-26T17:42:27.221Z,1.42
2023-02-26T17:44:55.285Z,2.90
2023-02-26T17:47:24.375Z,2.85
2023-02-26T17:49:51.111Z,3.72
2023-02-26T17:52:17.902Z,2.15
2023-02-26T17:54:45.004Z,3.72
2023-02-26T17:57:18.660Z,2.67
2023-02-26T17:59:46.316Z,2.22
2023-02-26T18:02:23.505Z,3.75
2023-02-26T18:04:50.347Z,4.18
2023-02-26T18:07:17.717Z,2.75
2023-02-26T18:09:45.220Z,2.33
2023-02-26T18:12:16.942Z,1.42
2023-02-26T18:14:43.811Z,3.85
2023-02-26T18:17:15.081Z,1.67
2023-02-26T18:19:42.970Z,3.63
2023-02-26T18:22:14.082Z,2.90
2023-02-26T18:24:41.178Z,1.70
2023-02-26T18:27:19.565Z,0.50
2023-02-26T18:29:46.592Z,1.15
2023-02-26T18:32:18.578Z,1.92
2023-02-26T18:34:45.570Z,2.07
2023-02-26T18:37:18.531Z,1.55
2023-02-26T18:39:45.306Z,1.58
2023-02-26T18:42:23.243Z,2.83
2023-02-26T18:44:50.501Z,1.65
2023-02-26T18:47:18.594Z,1.55
2023-02-26T18:49:46.037Z,1.75
2023-02-26T18:52:12.744Z,1.45
2023-02-26T18:54:39.660Z,2.75
2023-02-26T18:57:07.418Z,1.80
2023-02-26T18:59:34.853Z,2.92
2023-02-26T19:02:03.348Z,2.22
2023-02-26T19:04:31.793Z,1.40
2023-02-26T19:06:58.685Z,1.85
2023-02-26T19:09:27.125Z,2.10
2023-02-26T19:11:53.972Z,2.20
2023-02-26T19:14:20.670Z,3.28
2023-02-26T19:16:47.511Z,2.88
2023-02-26T19:19:14.409Z,2.88
2023-02-26T19:21:41.159Z,1.98
2023-02-26T19:24:09.422Z,2.10
2023-02-26T19:26:37.082Z,2.28
2023-02-26T19:29:05.207Z,2.00
2023-02-26T19:31:32.324Z,4.20
2023-02-26T19:33:59.196Z,3.25
2023-02-26T19:36:26.504Z,3.70
2023-02-26T19:38:53.298Z,5.38
2023-02-26T19:41:20.018Z,3.65
2023-02-26T19:43:47.671Z,2.65
2023-02-26T19:46:15.189Z,2.70
2023-02-26T19:48:42.222Z,2.80
2023-02-26T19:51:09.068Z,3.55
2023-02-26T19:53:36.180Z,2.10
2023-02-26T19:56:04.098Z,2.28
2023-02-26T19:58:31.142Z,2.05
2023-02-26T20:00:58.949Z,0.73
2023-02-26T20:03:25.731Z,2.63
2023-02-26T20:05:53.085Z,2.95
2023-02-26T20:08:21.627Z,2.72
2023-02-26T20:10:56.316Z,1.25
2023-02-26T20:13:24.579Z,2.08
2023-02-26T20:15:53.556Z,2.50
2023-02-26T20:18:20.344Z,3.25
2023-02-26T20:20:47.038Z,4.60
2023-02-26T20:23:13.784Z,4.10
2023-02-26T20:25:42.755Z,2.90
2023-02-26T20:28:09.499Z,3.45
2023-02-26T20:30:36.146Z,4.55
2023-02-26T20:33:02.936Z,3.92
2023-02-26T20:35:29.717Z,5.00
2023-02-26T20:37:56.385Z,3.58
2023-02-26T20:40:23.141Z,4.60
2023-02-26T20:42:49.804Z,4.35
2023-02-26T20:45:16.556Z,2.45
2023-02-26T20:47:43.190Z,2.88
2023-02-26T20:50:10.421Z,1.58
2023-02-26T20:52:37.053Z,0.88
2023-02-26T20:55:04.236Z,2.92
2023-02-26T20:57:32.559Z,2.00
2023-02-26T20:59:59.603Z,2.15
2023-02-26T21:02:26.294Z,1.75
2023-02-26T21:04:52.960Z,1.95
2023-02-26T21:07:22.521Z,2.70
2023-02-26T21:09:49.771Z,2.03
2023-02-26T21:12:22.886Z,1.75
2023-02-26T21:17:19.786Z,1.40
2023-02-26T21:19:46.481Z,2.53
2023-02-26T21:22:13.523Z,2.80
2023-02-26T21:24:40.394Z,2.03
2023-02-26T21:27:07.204Z,2.08
2023-02-26T21:29:34.035Z,1.92
2023-02-26T21:32:03.638Z,2.85
2023-02-26T21:34:34.205Z,5.05
2023-02-26T21:37:06.454Z,1.50
2023-02-26T21:39:33.822Z,2.63
2023-02-26T21:42:03.851Z,2.28
2023-02-26T21:44:32.462Z,1.45
2023-02-26T21:46:59.795Z,3.45
2023-02-26T21:49:27.497Z,2.20
2023-02-26T21:51:54.275Z,2.45
2023-02-26T21:54:21.070Z,1.95
2023-02-26T21:56:47.819Z,3.83
2023-02-26T21:59:14.511Z,2.58
2023-02-26T22:01:41.275Z,2.28
2023-02-26T22:04:08.373Z,1.65
2023-02-26T22:06:35.513Z,3.20
2023-02-26T22:09:02.385Z,2.45
2023-02-26T22:11:29.291Z,1.38
2023-02-26T22:13:56.050Z,1.50
2023-02-26T22:16:22.889Z,3.67
2023-02-26T22:18:49.609Z,3.08
2023-02-26T22:21:16.336Z,2.00
2023-02-26T22:23:43.030Z,1.13
2023-02-26T22:26:09.829Z,5.03
2023-02-26T22:28:36.507Z,1.50
2023-02-26T22:31:03.255Z,1.52
2023-02-26T22:33:29.952Z,2.03
2023-02-26T22:35:58.018Z,1.45
2023-02-26T22:38:24.783Z,1.25
2023-02-26T22:40:51.542Z,1.48
2023-02-26T22:43:18.379Z,4.05
2023-02-26T22:45:45.152Z,2.95
2023-02-26T22:48:11.961Z,2.15
2023-02-26T22:50:38.687Z,3.30
2023-02-26T22:53:06.995Z,2.58
2023-02-26T22:55:33.651Z,2.60
2023-02-26T22:58:00.783Z,1.10
2023-02-26T23:00:28.011Z,1.67
2023-02-26T23:02:54.878Z,2.97
2023-02-26T23:05:21.674Z,1.17
2023-02-26T23:07:49.307Z,2.50
2023-02-26T23:10:17.179Z,2.58
2023-02-26T23:12:44.037Z,3.25
2023-02-26T23:15:11.348Z,2.72
2023-02-26T23:17:38.648Z,1.95
2023-02-26T23:20:06.585Z,3.42
2023-02-26T23:22:33.216Z,1.83
2023-02-26T23:24:59.952Z,2.25
2023-02-26T23:27:27.064Z,4.13
2023-02-26T23:29:53.742Z,2.63
2023-02-26T23:32:20.546Z,4.65
2023-02-26T23:34:47.308Z,1.65
2023-02-26T23:37:13.977Z,3.28
2023-02-26T23:39:40.607Z,1.60
2023-02-26T23:42:07.316Z,2.67
2023-02-26T23:44:33.955Z,3.28
2023-02-26T23:47:00.652Z,2.45
2023-02-26T23:49:27.284Z,2.72
2023-02-26T23:51:53.951Z,2.05
2023-02-26T23:54:20.616Z,3.05
2023-02-26T23:56:47.708Z,2.40
2023-02-26T23:59:14.399Z,2.00
